sensor_id;sensor_type;location;lat;lon;timestamp;temperature;humidity
17370;DHT22;8802;52.402;4.920;2023-04-25T00:01:56;11.10;99.90
17370;DHT22;8802;52.402;4.920;2023-04-25T00:04:24;11.10;99.90
17370;DHT22;8802;52.402;4.920;2023-04-25T00:06:52;11.10;99.90
17370;DHT22;8802;52.402;4.920;2023-04-25T00:09:19;11.10;99.90
17370;DHT22;8802;52.402;4.920;2023-04-25T00:11:46;11.10;99.90
17370;DHT22;8802;52.402;4.920;2023-04-25T00:14:13;11.10;99.90
17370;DHT22;8802;52.402;4.920;2023-04-25T00:16:40;11.00;99.90
17370;DHT22;8802;52.402;4.920;2023-04-25T00:19:09;11.10;99.90
17370;DHT22;8802;52.402;4.920;2023-04-25T00:21:38;11.10;99.90
17370;DHT22;8802;52.402;4.920;2023-04-25T00:24:06;11.30;99.90
17370;DHT22;8802;52.402;4.920;2023-04-25T00:26:33;11.10;99.90
17370;DHT22;8802;52.402;4.920;2023-04-25T00:29:01;11.10;99.90
17370;DHT22;8802;52.402;4.920;2023-04-25T00:31:28;11.00;99.90
17370;DHT22;8802;52.402;4.920;2023-04-25T00:33:55;11.10;99.90
17370;DHT22;8802;52.402;4.920;2023-04-25T00:36:22;11.10;99.90
17370;DHT22;8802;52.402;4.920;2023-04-25T00:38:50;11.00;99.90
17370;DHT22;8802;52.402;4.920;2023-04-25T00:41:17;11.00;99.90
17370;DHT22;8802;52.402;4.920;2023-04-25T00:43:45;11.00;99.90
17370;DHT22;8802;52.402;4.920;2023-04-25T00:46:13;11.00;99.90
17370;DHT22;8802;52.402;4.920;2023-04-25T00:48:40;11.00;99.90
17370;DHT22;8802;52.402;4.920;2023-04-25T00:51:06;11.00;99.90
17370;DHT22;8802;52.402;4.920;2023-04-25T00:53:33;11.00;99.90
17370;DHT22;8802;52.402;4.920;2023-04-25T00:56:02;11.00;99.90
17370;DHT22;8802;52.402;4.920;2023-04-25T00:58:29;11.00;99.90
17370;DHT22;8802;52.402;4.920;2023-04-25T01:00:57;11.00;99.90
17370;DHT22;8802;52.402;4.920;2023-04-25T01:03:25;11.00;99.90
17370;DHT22;8802;52.402;4.920;2023-04-25T01:05:54;11.00;99.90
17370;DHT22;8802;52.402;4.920;2023-04-25T01:08:23;11.00;99.90
17370;DHT22;8802;52.402;4.920;2023-04-25T01:10:51;11.00;99.90
17370;DHT22;8802;52.402;4.920;2023-04-25T01:13:19;11.00;99.90
17370;DHT22;8802;52.402;4.920;2023-04-25T01:15:46;11.00;99.90
17370;DHT22;8802;52.402;4.920;2023-04-25T01:18:14;10.90;99.90
17370;DHT22;8802;52.402;4.920;2023-04-25T01:20:41;11.00;99.90
17370;DHT22;8802;52.402;4.920;2023-04-25T01:23:10;11.00;99.90
17370;DHT22;8802;52.402;4.920;2023-04-25T01:25:37;11.00;99.90
17370;DHT22;8802;52.402;4.920;2023-04-25T01:28:04;10.90;99.90
17370;DHT22;8802;52.402;4.920;2023-04-25T01:30:31;10.90;99.90
17370;DHT22;8802;52.402;4.920;2023-04-25T01:32:59;10.90;99.90
17370;DHT22;8802;52.402;4.920;2023-04-25T01:35:26;10.90;99.90
17370;DHT22;8802;52.402;4.920;2023-04-25T01:37:53;10.80;99.90
17370;DHT22;8802;52.402;4.920;2023-04-25T01:40:22;10.80;99.90
17370;DHT22;8802;52.402;4.920;2023-04-25T01:42:51;10.80;99.90
17370;DHT22;8802;52.402;4.920;2023-04-25T01:45:19;10.80;99.90
17370;DHT22;8802;52.402;4.920;2023-04-25T01:47:46;10.80;99.90
17370;DHT22;8802;52.402;4.920;2023-04-25T01:50:15;10.80;99.90
17370;DHT22;8802;52.402;4.920;2023-04-25T01:52:42;10.80;99.90
17370;DHT22;8802;52.402;4.920;2023-04-25T01:55:10;10.80;99.90
17370;DHT22;8802;52.402;4.920;2023-04-25T01:57:38;10.80;99.90
17370;DHT22;8802;52.402;4.920;2023-04-25T02:00:07;10.80;99.90
17370;DHT22;8802;52.402;4.920;2023-04-25T02:02:35;10.80;99.90
17370;DHT22;8802;52.402;4.920;2023-04-25T02:05:02;10.80;99.90
17370;DHT22;8802;52.402;4.920;2023-04-25T02:07:29;10.80;99.90
17370;DHT22;8802;52.402;4.920;2023-04-25T02:09:56;10.80;99.90
17370;DHT22;8802;52.402;4.920;2023-04-25T02:12:23;10.80;99.90
17370;DHT22;8802;52.402;4.920;2023-04-25T02:14:53;10.80;99.90
17370;DHT22;8802;52.402;4.920;2023-04-25T02:17:19;10.80;99.90
17370;DHT22;8802;52.402;4.920;2023-04-25T02:19:47;10.80;99.90
17370;DHT22;8802;52.402;4.920;2023-04-25T02:22:14;10.80;99.90
17370;DHT22;8802;52.402;4.920;2023-04-25T02:24:41;10.80;99.90
17370;DHT22;8802;52.402;4.920;2023-04-25T02:27:08;10.80;99.90
17370;DHT22;8802;52.402;4.920;2023-04-25T02:29:35;10.80;99.90
17370;DHT22;8802;52.402;4.920;2023-04-25T02:32:04;10.70;99.90
17370;DHT22;8802;52.402;4.920;2023-04-25T02:34:31;10.70;99.90
17370;DHT22;8802;52.402;4.920;2023-04-25T02:36:57;10.70;99.90
17370;DHT22;8802;52.402;4.920;2023-04-25T02:39:24;10.70;99.90
17370;DHT22;8802;52.402;4.920;2023-04-25T02:41:52;10.60;99.90
17370;DHT22;8802;52.402;4.920;2023-04-25T02:44:19;10.70;99.90
17370;DHT22;8802;52.402;4.920;2023-04-25T02:46:46;10.60;99.90
17370;DHT22;8802;52.402;4.920;2023-04-25T02:49:14;10.60;99.90
17370;DHT22;8802;52.402;4.920;2023-04-25T02:51:41;10.60;99.90
17370;DHT22;8802;52.402;4.920;2023-04-25T02:54:08;10.60;99.90
17370;DHT22;8802;52.402;4.920;2023-04-25T02:56:35;10.60;99.90
17370;DHT22;8802;52.402;4.920;2023-04-25T02:59:02;10.60;99.90
17370;DHT22;8802;52.402;4.920;2023-04-25T03:01:29;10.60;99.90
17370;DHT22;8802;52.402;4.920;2023-04-25T03:03:55;10.60;99.90
17370;DHT22;8802;52.402;4.920;2023-04-25T03:06:24;10.60;99.90
17370;DHT22;8802;52.402;4.920;2023-04-25T03:08:51;10.60;99.90
17370;DHT22;8802;52.402;4.920;2023-04-25T03:11:18;10.60;99.90
17370;DHT22;8802;52.402;4.920;2023-04-25T03:13:45;10.60;99.90
17370;DHT22;8802;52.402;4.920;2023-04-25T03:16:12;10.60;99.90
17370;DHT22;8802;52.402;4.920;2023-04-25T03:18:39;10.50;99.90
17370;DHT22;8802;52.402;4.920;2023-04-25T03:21:06;10.50;99.90
17370;DHT22;8802;52.402;4.920;2023-04-25T03:23:34;10.50;99.90
17370;DHT22;8802;52.402;4.920;2023-04-25T03:26:01;10.40;99.90
17370;DHT22;8802;52.402;4.920;2023-04-25T03:28:28;10.40;99.90
17370;DHT22;8802;52.402;4.920;2023-04-25T03:30:55;10.40;99.90
17370;DHT22;8802;52.402;4.920;2023-04-25T03:33:22;10.30;99.90
17370;DHT22;8802;52.402;4.920;2023-04-25T03:35:48;10.30;99.90
17370;DHT22;8802;52.402;4.920;2023-04-25T03:38:16;10.20;99.90
17370;DHT22;8802;52.402;4.920;2023-04-25T03:40:45;10.20;99.90
17370;DHT22;8802;52.402;4.920;2023-04-25T03:43:12;10.10;99.90
17370;DHT22;8802;52.402;4.920;2023-04-25T03:45:38;10.10;99.90
17370;DHT22;8802;52.402;4.920;2023-04-25T03:48:05;10.10;99.90
17370;DHT22;8802;52.402;4.920;2023-04-25T03:50:32;10.10;99.90
17370;DHT22;8802;52.402;4.920;2023-04-25T03:52:59;10.10;99.90
17370;DHT22;8802;52.402;4.920;2023-04-25T03:55:26;10.10;99.90
17370;DHT22;8802;52.402;4.920;2023-04-25T03:57:54;10.10;99.90
17370;DHT22;8802;52.402;4.920;2023-04-25T04:00:23;10.00;99.90
17370;DHT22;8802;52.402;4.920;2023-04-25T04:02:50;10.10;99.90
17370;DHT22;8802;52.402;4.920;2023-04-25T04:05:17;10.10;99.90
17370;DHT22;8802;52.402;4.920;2023-04-25T04:07:44;10.10;99.90
17370;DHT22;8802;52.402;4.920;2023-04-25T04:10:11;10.10;99.90
17370;DHT22;8802;52.402;4.920;2023-04-25T04:12:38;10.10;99.90
17370;DHT22;8802;52.402;4.920;2023-04-25T04:15:07;10.10;99.90
17370;DHT22;8802;52.402;4.920;2023-04-25T04:17:35;10.10;99.90
17370;DHT22;8802;52.402;4.920;2023-04-25T04:20:02;10.10;99.90
17370;DHT22;8802;52.402;4.920;2023-04-25T04:22:29;10.10;99.90
17370;DHT22;8802;52.402;4.920;2023-04-25T04:24:56;10.10;99.90
17370;DHT22;8802;52.402;4.920;2023-04-25T04:27:23;10.10;99.90
17370;DHT22;8802;52.402;4.920;2023-04-25T04:29:50;10.10;99.90
17370;DHT22;8802;52.402;4.920;2023-04-25T04:32:20;10.00;99.90
17370;DHT22;8802;52.402;4.920;2023-04-25T04:34:48;10.10;99.90
17370;DHT22;8802;52.402;4.920;2023-04-25T04:37:15;10.10;99.90
17370;DHT22;8802;52.402;4.920;2023-04-25T04:39:43;10.10;99.90
17370;DHT22;8802;52.402;4.920;2023-04-25T04:42:10;10.10;99.90
17370;DHT22;8802;52.402;4.920;2023-04-25T04:44:38;10.10;99.90
17370;DHT22;8802;52.402;4.920;2023-04-25T04:47:05;10.20;99.90
17370;DHT22;8802;52.402;4.920;2023-04-25T04:49:33;10.20;99.90
17370;DHT22;8802;52.402;4.920;2023-04-25T04:52:00;10.20;99.90
17370;DHT22;8802;52.402;4.920;2023-04-25T04:54:27;10.30;99.90
17370;DHT22;8802;52.402;4.920;2023-04-25T04:56:54;10.30;99.90
17370;DHT22;8802;52.402;4.920;2023-04-25T04:59:21;10.30;99.90
17370;DHT22;8802;52.402;4.920;2023-04-25T05:01:48;10.30;99.90
17370;DHT22;8802;52.402;4.920;2023-04-25T05:04:15;10.40;99.90
17370;DHT22;8802;52.402;4.920;2023-04-25T05:06:43;10.40;99.90
17370;DHT22;8802;52.402;4.920;2023-04-25T05:09:10;10.40;99.90
17370;DHT22;8802;52.402;4.920;2023-04-25T05:11:37;10.40;99.90
17370;DHT22;8802;52.402;4.920;2023-04-25T05:14:04;10.40;99.90
17370;DHT22;8802;52.402;4.920;2023-04-25T05:16:31;10.50;99.90
17370;DHT22;8802;52.402;4.920;2023-04-25T05:18:58;10.50;99.90
17370;DHT22;8802;52.402;4.920;2023-04-25T05:21:25;10.50;99.90
17370;DHT22;8802;52.402;4.920;2023-04-25T05:23:54;10.50;99.90
17370;DHT22;8802;52.402;4.920;2023-04-25T05:26:21;10.50;99.90
17370;DHT22;8802;52.402;4.920;2023-04-25T05:28:48;10.60;99.90
17370;DHT22;8802;52.402;4.920;2023-04-25T05:31:16;10.50;99.90
17370;DHT22;8802;52.402;4.920;2023-04-25T05:33:43;10.60;99.90
17370;DHT22;8802;52.402;4.920;2023-04-25T05:36:10;10.60;99.90
17370;DHT22;8802;52.402;4.920;2023-04-25T05:38:37;10.60;99.90
17370;DHT22;8802;52.402;4.920;2023-04-25T05:41:05;10.60;99.90
17370;DHT22;8802;52.402;4.920;2023-04-25T05:43:32;10.60;99.90
17370;DHT22;8802;52.402;4.920;2023-04-25T05:45:59;10.60;99.90
17370;DHT22;8802;52.402;4.920;2023-04-25T05:48:26;10.60;99.90
17370;DHT22;8802;52.402;4.920;2023-04-25T05:50:53;10.60;99.90
17370;DHT22;8802;52.402;4.920;2023-04-25T05:53:20;10.60;99.90
17370;DHT22;8802;52.402;4.920;2023-04-25T05:55:48;10.60;99.90
17370;DHT22;8802;52.402;4.920;2023-04-25T05:58:16;10.60;99.90
17370;DHT22;8802;52.402;4.920;2023-04-25T06:00:43;10.70;99.90
17370;DHT22;8802;52.402;4.920;2023-04-25T06:03:10;10.70;99.90
17370;DHT22;8802;52.402;4.920;2023-04-25T06:05:36;10.70;99.90
17370;DHT22;8802;52.402;4.920;2023-04-25T06:08:03;10.70;99.90
17370;DHT22;8802;52.402;4.920;2023-04-25T06:10:30;10.80;99.90
17370;DHT22;8802;52.402;4.920;2023-04-25T06:12:57;10.80;99.90
17370;DHT22;8802;52.402;4.920;2023-04-25T06:15:25;10.80;99.90
17370;DHT22;8802;52.402;4.920;2023-04-25T06:17:52;10.80;99.90
17370;DHT22;8802;52.402;4.920;2023-04-25T06:20:19;10.90;99.90
17370;DHT22;8802;52.402;4.920;2023-04-25T06:22:48;10.90;99.90
17370;DHT22;8802;52.402;4.920;2023-04-25T06:25:15;10.90;99.90
17370;DHT22;8802;52.402;4.920;2023-04-25T06:27:42;11.00;99.90
17370;DHT22;8802;52.402;4.920;2023-04-25T06:30:10;11.00;99.90
17370;DHT22;8802;52.402;4.920;2023-04-25T06:32:39;11.00;99.90
17370;DHT22;8802;52.402;4.920;2023-04-25T06:35:06;11.10;99.90
17370;DHT22;8802;52.402;4.920;2023-04-25T06:37:33;11.10;99.90
17370;DHT22;8802;52.402;4.920;2023-04-25T06:40:00;11.10;99.90
17370;DHT22;8802;52.402;4.920;2023-04-25T06:42:27;11.20;99.90
17370;DHT22;8802;52.402;4.920;2023-04-25T06:44:54;11.20;99.90
17370;DHT22;8802;52.402;4.920;2023-04-25T06:47:21;11.30;99.90
17370;DHT22;8802;52.402;4.920;2023-04-25T06:49:49;11.30;99.90
17370;DHT22;8802;52.402;4.920;2023-04-25T06:52:16;11.40;99.90
17370;DHT22;8802;52.402;4.920;2023-04-25T06:54:44;11.50;99.90
17370;DHT22;8802;52.402;4.920;2023-04-25T06:57:11;11.60;99.90
17370;DHT22;8802;52.402;4.920;2023-04-25T06:59:38;11.60;99.90
17370;DHT22;8802;52.402;4.920;2023-04-25T07:02:05;11.60;99.90
17370;DHT22;8802;52.402;4.920;2023-04-25T07:04:32;11.70;99.90
17370;DHT22;8802;52.402;4.920;2023-04-25T07:07:00;11.80;99.90
17370;DHT22;8802;52.402;4.920;2023-04-25T07:09:28;11.90;99.90
17370;DHT22;8802;52.402;4.920;2023-04-25T07:11:55;12.10;99.90
17370;DHT22;8802;52.402;4.920;2023-04-25T07:14:22;12.20;99.70
17370;DHT22;8802;52.402;4.920;2023-04-25T07:16:49;12.40;99.50
17370;DHT22;8802;52.402;4.920;2023-04-25T07:19:16;12.50;99.30
17370;DHT22;8802;52.402;4.920;2023-04-25T07:21:43;12.60;99.60
17370;DHT22;8802;52.402;4.920;2023-04-25T07:24:11;12.70;98.80
17370;DHT22;8802;52.402;4.920;2023-04-25T07:26:38;12.70;99.10
17370;DHT22;8802;52.402;4.920;2023-04-25T07:29:05;12.70;98.50
17370;DHT22;8802;52.402;4.920;2023-04-25T07:31:32;12.80;98.40
17370;DHT22;8802;52.402;4.920;2023-04-25T07:33:59;12.80;98.40
17370;DHT22;8802;52.402;4.920;2023-04-25T07:36:25;12.90;98.60
17370;DHT22;8802;52.402;4.920;2023-04-25T07:38:53;13.00;98.40
17370;DHT22;8802;52.402;4.920;2023-04-25T07:41:21;13.00;98.80
17370;DHT22;8802;52.402;4.920;2023-04-25T07:43:48;13.20;98.00
17370;DHT22;8802;52.402;4.920;2023-04-25T07:46:15;13.20;97.50
17370;DHT22;8802;52.402;4.920;2023-04-25T07:48:42;13.30;97.40
17370;DHT22;8802;52.402;4.920;2023-04-25T07:51:09;13.30;97.20
17370;DHT22;8802;52.402;4.920;2023-04-25T07:53:36;13.30;97.40
17370;DHT22;8802;52.402;4.920;2023-04-25T07:56:04;13.30;96.90
17370;DHT22;8802;52.402;4.920;2023-04-25T07:58:32;13.20;96.80
17370;DHT22;8802;52.402;4.920;2023-04-25T08:00:59;13.30;97.00
17370;DHT22;8802;52.402;4.920;2023-04-25T08:03:26;13.30;97.50
17370;DHT22;8802;52.402;4.920;2023-04-25T08:05:53;13.30;97.80
17370;DHT22;8802;52.402;4.920;2023-04-25T08:08:19;13.40;98.10
17370;DHT22;8802;52.402;4.920;2023-04-25T08:10:46;13.40;97.70
17370;DHT22;8802;52.402;4.920;2023-04-25T08:13:14;13.50;97.30
17370;DHT22;8802;52.402;4.920;2023-04-25T08:15:42;13.60;97.00
17370;DHT22;8802;52.402;4.920;2023-04-25T08:18:09;13.70;97.30
17370;DHT22;8802;52.402;4.920;2023-04-25T08:20:36;13.90;97.10
17370;DHT22;8802;52.402;4.920;2023-04-25T08:23:03;13.90;96.90
17370;DHT22;8802;52.402;4.920;2023-04-25T08:25:31;14.00;96.40
17370;DHT22;8802;52.402;4.920;2023-04-25T08:27:57;14.10;96.40
17370;DHT22;8802;52.402;4.920;2023-04-25T08:30:25;14.20;95.80
17370;DHT22;8802;52.402;4.920;2023-04-25T08:32:53;14.30;95.90
17370;DHT22;8802;52.402;4.920;2023-04-25T08:35:20;14.40;95.50
17370;DHT22;8802;52.402;4.920;2023-04-25T08:37:47;14.50;95.80
17370;DHT22;8802;52.402;4.920;2023-04-25T08:40:15;14.50;95.70
17370;DHT22;8802;52.402;4.920;2023-04-25T08:42:42;14.50;95.50
17370;DHT22;8802;52.402;4.920;2023-04-25T08:45:10;14.40;95.20
17370;DHT22;8802;52.402;4.920;2023-04-25T08:47:38;14.50;95.30
17370;DHT22;8802;52.402;4.920;2023-04-25T08:50:07;14.50;95.40
17370;DHT22;8802;52.402;4.920;2023-04-25T08:52:37;14.40;94.90
17370;DHT22;8802;52.402;4.920;2023-04-25T08:55:07;14.40;95.30
17370;DHT22;8802;52.402;4.920;2023-04-25T08:57:37;14.40;95.10
17370;DHT22;8802;52.402;4.920;2023-04-25T09:00:05;14.40;95.30
17370;DHT22;8802;52.402;4.920;2023-04-25T09:02:33;14.40;95.20
17370;DHT22;8802;52.402;4.920;2023-04-25T09:05:02;14.40;95.10
17370;DHT22;8802;52.402;4.920;2023-04-25T09:07:31;14.40;95.10
17370;DHT22;8802;52.402;4.920;2023-04-25T09:09:58;14.40;94.10
17370;DHT22;8802;52.402;4.920;2023-04-25T09:12:29;14.40;94.10
17370;DHT22;8802;52.402;4.920;2023-04-25T09:15:07;14.40;94.00
17370;DHT22;8802;52.402;4.920;2023-04-25T09:17:34;14.40;93.40
17370;DHT22;8802;52.402;4.920;2023-04-25T09:20:07;14.40;93.70
17370;DHT22;8802;52.402;4.920;2023-04-25T09:22:36;14.40;94.00
17370;DHT22;8802;52.402;4.920;2023-04-25T09:25:04;14.30;93.20
17370;DHT22;8802;52.402;4.920;2023-04-25T09:27:34;14.30;93.10
17370;DHT22;8802;52.402;4.920;2023-04-25T09:30:02;14.30;93.90
17370;DHT22;8802;52.402;4.920;2023-04-25T09:32:29;14.40;94.00
17370;DHT22;8802;52.402;4.920;2023-04-25T09:34:57;14.40;93.60
17370;DHT22;8802;52.402;4.920;2023-04-25T09:37:25;14.40;93.40
17370;DHT22;8802;52.402;4.920;2023-04-25T09:39:55;14.50;93.90
17370;DHT22;8802;52.402;4.920;2023-04-25T09:42:23;14.60;93.80
17370;DHT22;8802;52.402;4.920;2023-04-25T09:44:52;14.70;93.20
17370;DHT22;8802;52.402;4.920;2023-04-25T09:47:19;14.70;92.70
17370;DHT22;8802;52.402;4.920;2023-04-25T09:49:49;14.90;93.60
17370;DHT22;8802;52.402;4.920;2023-04-25T09:52:17;15.00;93.70
17370;DHT22;8802;52.402;4.920;2023-04-25T09:54:45;15.10;93.90
17370;DHT22;8802;52.402;4.920;2023-04-25T09:57:14;15.20;93.30
17370;DHT22;8802;52.402;4.920;2023-04-25T09:59:46;15.40;93.10
17370;DHT22;8802;52.402;4.920;2023-04-25T10:02:14;15.50;92.70
17370;DHT22;8802;52.402;4.920;2023-04-25T10:04:42;15.60;92.50
17370;DHT22;8802;52.402;4.920;2023-04-25T10:07:11;15.60;92.40
17370;DHT22;8802;52.402;4.920;2023-04-25T10:09:39;15.60;92.20
17370;DHT22;8802;52.402;4.920;2023-04-25T10:12:07;15.50;92.60
17370;DHT22;8802;52.402;4.920;2023-04-25T10:14:35;15.30;92.70
17370;DHT22;8802;52.402;4.920;2023-04-25T10:17:02;15.20;92.80
17370;DHT22;8802;52.402;4.920;2023-04-25T10:19:30;15.00;92.90
17370;DHT22;8802;52.402;4.920;2023-04-25T10:22:05;14.80;92.40
17370;DHT22;8802;52.402;4.920;2023-04-25T10:24:35;14.60;93.00
17370;DHT22;8802;52.402;4.920;2023-04-25T10:27:02;14.50;93.50
17370;DHT22;8802;52.402;4.920;2023-04-25T10:29:29;14.30;93.50
17370;DHT22;8802;52.402;4.920;2023-04-25T10:31:57;14.30;93.80
17370;DHT22;8802;52.402;4.920;2023-04-25T10:34:37;14.30;93.80
17370;DHT22;8802;52.402;4.920;2023-04-25T10:37:05;14.30;94.00
17370;DHT22;8802;52.402;4.920;2023-04-25T10:39:34;14.40;93.90
17370;DHT22;8802;52.402;4.920;2023-04-25T10:42:02;14.50;94.10
17370;DHT22;8802;52.402;4.920;2023-04-25T10:44:29;14.70;94.00
17370;DHT22;8802;52.402;4.920;2023-04-25T10:46:59;14.80;93.60
17370;DHT22;8802;52.402;4.920;2023-04-25T10:49:30;15.00;94.00
17370;DHT22;8802;52.402;4.920;2023-04-25T10:52:11;15.20;93.20
17370;DHT22;8802;52.402;4.920;2023-04-25T10:54:41;15.30;93.10
17370;DHT22;8802;52.402;4.920;2023-04-25T10:57:26;15.40;93.60
17370;DHT22;8802;52.402;4.920;2023-04-25T10:59:54;15.40;94.10
17370;DHT22;8802;52.402;4.920;2023-04-25T11:02:27;15.40;94.30
17370;DHT22;8802;52.402;4.920;2023-04-25T11:04:54;15.40;94.40
17370;DHT22;8802;52.402;4.920;2023-04-25T11:07:28;15.40;94.70
17370;DHT22;8802;52.402;4.920;2023-04-25T11:09:57;15.40;94.80
17370;DHT22;8802;52.402;4.920;2023-04-25T11:12:27;15.40;94.20
17370;DHT22;8802;52.402;4.920;2023-04-25T11:14:59;15.40;94.20
17370;DHT22;8802;52.402;4.920;2023-04-25T11:17:28;15.50;93.60
17370;DHT22;8802;52.402;4.920;2023-04-25T11:19:55;15.50;94.10
17370;DHT22;8802;52.402;4.920;2023-04-25T11:22:22;15.60;93.20
17370;DHT22;8802;52.402;4.920;2023-04-25T11:24:49;15.70;93.00
17370;DHT22;8802;52.402;4.920;2023-04-25T11:27:17;15.80;92.80
17370;DHT22;8802;52.402;4.920;2023-04-25T11:29:44;16.00;91.60
17370;DHT22;8802;52.402;4.920;2023-04-25T11:32:12;16.10;91.50
17370;DHT22;8802;52.402;4.920;2023-04-25T11:34:43;16.10;92.30
17370;DHT22;8802;52.402;4.920;2023-04-25T11:37:10;16.20;90.90
17370;DHT22;8802;52.402;4.920;2023-04-25T11:39:38;16.20;91.20
17370;DHT22;8802;52.402;4.920;2023-04-25T11:42:05;16.20;91.60
17370;DHT22;8802;52.402;4.920;2023-04-25T11:44:32;16.30;91.80
17370;DHT22;8802;52.402;4.920;2023-04-25T11:46:59;16.40;91.30
17370;DHT22;8802;52.402;4.920;2023-04-25T11:49:30;16.50;91.40
17370;DHT22;8802;52.402;4.920;2023-04-25T11:51:58;16.60;91.10
17370;DHT22;8802;52.402;4.920;2023-04-25T11:54:25;16.60;91.40
17370;DHT22;8802;52.402;4.920;2023-04-25T11:56:52;16.70;90.00
17370;DHT22;8802;52.402;4.920;2023-04-25T11:59:23;16.70;90.10
17370;DHT22;8802;52.402;4.920;2023-04-25T12:01:50;16.70;89.40
17370;DHT22;8802;52.402;4.920;2023-04-25T12:04:19;16.70;90.10
17370;DHT22;8802;52.402;4.920;2023-04-25T12:06:47;16.70;88.90
17370;DHT22;8802;52.402;4.920;2023-04-25T12:09:17;16.80;90.00
17370;DHT22;8802;52.402;4.920;2023-04-25T12:11:45;16.90;89.50
17370;DHT22;8802;52.402;4.920;2023-04-25T12:14:20;17.00;90.00
17370;DHT22;8802;52.402;4.920;2023-04-25T12:16:48;17.10;89.30
17370;DHT22;8802;52.402;4.920;2023-04-25T12:19:16;17.20;87.40
17370;DHT22;8802;52.402;4.920;2023-04-25T12:21:43;17.30;87.60
17370;DHT22;8802;52.402;4.920;2023-04-25T12:24:12;17.40;87.90
17370;DHT22;8802;52.402;4.920;2023-04-25T12:26:52;17.40;86.30
17370;DHT22;8802;52.402;4.920;2023-04-25T12:29:21;17.50;84.60
17370;DHT22;8802;52.402;4.920;2023-04-25T12:31:49;17.40;84.30
17370;DHT22;8802;52.402;4.920;2023-04-25T12:34:16;17.40;86.30
17370;DHT22;8802;52.402;4.920;2023-04-25T12:36:43;17.30;84.80
17370;DHT22;8802;52.402;4.920;2023-04-25T12:39:14;17.30;85.50
17370;DHT22;8802;52.402;4.920;2023-04-25T12:41:41;17.20;83.60
17370;DHT22;8802;52.402;4.920;2023-04-25T12:44:10;17.20;84.80
17370;DHT22;8802;52.402;4.920;2023-04-25T12:46:37;17.10;83.70
17370;DHT22;8802;52.402;4.920;2023-04-25T12:49:04;17.00;84.00
17370;DHT22;8802;52.402;4.920;2023-04-25T12:51:32;16.90;85.30
17370;DHT22;8802;52.402;4.920;2023-04-25T12:53:59;16.80;84.70
17370;DHT22;8802;52.402;4.920;2023-04-25T12:56:26;16.80;84.50
17370;DHT22;8802;52.402;4.920;2023-04-25T12:58:54;16.70;84.00
17370;DHT22;8802;52.402;4.920;2023-04-25T13:01:22;16.70;84.50
17370;DHT22;8802;52.402;4.920;2023-04-25T13:03:49;16.70;84.20
17370;DHT22;8802;52.402;4.920;2023-04-25T13:06:17;16.70;84.50
17370;DHT22;8802;52.402;4.920;2023-04-25T13:08:44;16.60;83.30
17370;DHT22;8802;52.402;4.920;2023-04-25T13:11:11;16.50;84.60
17370;DHT22;8802;52.402;4.920;2023-04-25T13:13:40;16.50;84.10
17370;DHT22;8802;52.402;4.920;2023-04-25T13:16:07;16.40;85.70
17370;DHT22;8802;52.402;4.920;2023-04-25T13:18:36;16.40;84.80
17370;DHT22;8802;52.402;4.920;2023-04-25T13:21:03;16.30;83.20
17370;DHT22;8802;52.402;4.920;2023-04-25T13:23:30;16.20;83.50
17370;DHT22;8802;52.402;4.920;2023-04-25T13:25:57;16.10;83.90
17370;DHT22;8802;52.402;4.920;2023-04-25T13:28:25;16.00;85.10
17370;DHT22;8802;52.402;4.920;2023-04-25T13:30:52;15.90;86.10
17370;DHT22;8802;52.402;4.920;2023-04-25T13:33:19;15.90;84.50
17370;DHT22;8802;52.402;4.920;2023-04-25T13:35:49;15.80;85.50
17370;DHT22;8802;52.402;4.920;2023-04-25T13:38:20;15.70;83.90
17370;DHT22;8802;52.402;4.920;2023-04-25T13:40:47;15.70;85.20
17370;DHT22;8802;52.402;4.920;2023-04-25T13:43:14;15.70;83.70
17370;DHT22;8802;52.402;4.920;2023-04-25T13:45:42;15.80;84.00
17370;DHT22;8802;52.402;4.920;2023-04-25T13:48:08;15.70;84.00
17370;DHT22;8802;52.402;4.920;2023-04-25T13:50:35;15.70;84.10
17370;DHT22;8802;52.402;4.920;2023-04-25T13:53:03;15.70;84.00
17370;DHT22;8802;52.402;4.920;2023-04-25T13:55:31;15.60;82.80
17370;DHT22;8802;52.402;4.920;2023-04-25T13:57:58;15.50;83.50
17370;DHT22;8802;52.402;4.920;2023-04-25T14:00:25;15.40;84.50
17370;DHT22;8802;52.402;4.920;2023-04-25T14:02:52;15.30;84.70
17370;DHT22;8802;52.402;4.920;2023-04-25T14:05:19;15.30;84.00
17370;DHT22;8802;52.402;4.920;2023-04-25T14:07:46;15.30;84.70
17370;DHT22;8802;52.402;4.920;2023-04-25T14:10:14;15.20;83.80
17370;DHT22;8802;52.402;4.920;2023-04-25T14:12:41;15.20;85.70
17370;DHT22;8802;52.402;4.920;2023-04-25T14:15:08;15.10;86.00
17370;DHT22;8802;52.402;4.920;2023-04-25T14:17:36;15.10;85.70
17370;DHT22;8802;52.402;4.920;2023-04-25T14:20:03;15.00;86.80
17370;DHT22;8802;52.402;4.920;2023-04-25T14:22:31;15.00;87.10
17370;DHT22;8802;52.402;4.920;2023-04-25T14:24:58;14.90;86.20
17370;DHT22;8802;52.402;4.920;2023-04-25T14:27:26;14.90;86.90
17370;DHT22;8802;52.402;4.920;2023-04-25T14:29:53;14.80;87.50
17370;DHT22;8802;52.402;4.920;2023-04-25T14:32:20;14.80;88.20
17370;DHT22;8802;52.402;4.920;2023-04-25T14:34:47;14.80;87.30
17370;DHT22;8802;52.402;4.920;2023-04-25T14:37:15;14.80;86.60
17370;DHT22;8802;52.402;4.920;2023-04-25T14:39:42;14.70;88.10
17370;DHT22;8802;52.402;4.920;2023-04-25T14:42:09;14.70;88.80
17370;DHT22;8802;52.402;4.920;2023-04-25T14:44:38;14.70;89.60
17370;DHT22;8802;52.402;4.920;2023-04-25T14:47:05;14.60;87.30
17370;DHT22;8802;52.402;4.920;2023-04-25T14:49:32;14.60;87.80
17370;DHT22;8802;52.402;4.920;2023-04-25T14:51:59;14.60;88.10
17370;DHT22;8802;52.402;4.920;2023-04-25T14:54:26;14.60;87.60
17370;DHT22;8802;52.402;4.920;2023-04-25T14:56:53;14.50;87.60
17370;DHT22;8802;52.402;4.920;2023-04-25T14:59:20;14.50;87.60
17370;DHT22;8802;52.402;4.920;2023-04-25T15:01:50;14.50;88.40
17370;DHT22;8802;52.402;4.920;2023-04-25T15:04:17;14.40;87.20
17370;DHT22;8802;52.402;4.920;2023-04-25T15:06:44;14.40;86.90
17370;DHT22;8802;52.402;4.920;2023-04-25T15:09:11;14.30;87.30
17370;DHT22;8802;52.402;4.920;2023-04-25T15:11:38;14.30;86.90
17370;DHT22;8802;52.402;4.920;2023-04-25T15:14:05;14.20;88.00
17370;DHT22;8802;52.402;4.920;2023-04-25T15:16:32;14.20;88.40
17370;DHT22;8802;52.402;4.920;2023-04-25T15:19:00;14.10;87.90
17370;DHT22;8802;52.402;4.920;2023-04-25T15:21:29;14.10;87.00
17370;DHT22;8802;52.402;4.920;2023-04-25T15:23:56;14.10;86.80
17370;DHT22;8802;52.402;4.920;2023-04-25T15:26:23;14.10;87.30
17370;DHT22;8802;52.402;4.920;2023-04-25T15:28:50;14.00;88.20
17370;DHT22;8802;52.402;4.920;2023-04-25T15:31:18;13.90;88.40
17370;DHT22;8802;52.402;4.920;2023-04-25T15:33:45;13.90;88.50
17370;DHT22;8802;52.402;4.920;2023-04-25T15:36:13;13.80;89.00
17370;DHT22;8802;52.402;4.920;2023-04-25T15:38:42;13.80;88.10
17370;DHT22;8802;52.402;4.920;2023-04-25T15:41:08;13.80;87.90
17370;DHT22;8802;52.402;4.920;2023-04-25T15:43:35;13.70;88.90
17370;DHT22;8802;52.402;4.920;2023-04-25T15:46:03;13.70;89.40
17370;DHT22;8802;52.402;4.920;2023-04-25T15:48:30;13.60;89.30